sensor_id;sensor_type;location;lat;lon;timestamp;temperature;humidity
30280;DHT22;17097;50.916;5.344;2023-05-16T00:00:55;11.90;99.90
30280;DHT22;17097;50.916;5.344;2023-05-16T00:03:22;11.90;99.90
30280;DHT22;17097;50.916;5.344;2023-05-16T00:05:48;12.00;99.90
30280;DHT22;17097;50.916;5.344;2023-05-16T00:08:15;11.90;99.90
30280;DHT22;17097;50.916;5.344;2023-05-16T00:10:41;11.70;99.90
30280;DHT22;17097;50.916;5.344;2023-05-16T00:13:09;11.70;99.90
30280;DHT22;17097;50.916;5.344;2023-05-16T00:15:34;11.70;99.90
30280;DHT22;17097;50.916;5.344;2023-05-16T00:18:00;11.60;99.90
30280;DHT22;17097;50.916;5.344;2023-05-16T00:20:27;11.40;99.90
30280;DHT22;17097;50.916;5.344;2023-05-16T00:22:53;11.50;99.90
30280;DHT22;17097;50.916;5.344;2023-05-16T00:25:19;11.40;99.90
30280;DHT22;17097;50.916;5.344;2023-05-16T00:27:47;11.40;99.90
30280;DHT22;17097;50.916;5.344;2023-05-16T00:30:13;11.50;99.90
30280;DHT22;17097;50.916;5.344;2023-05-16T00:32:38;11.50;99.90
30280;DHT22;17097;50.916;5.344;2023-05-16T00:35:05;11.40;99.90
30280;DHT22;17097;50.916;5.344;2023-05-16T00:37:31;11.30;99.90
30280;DHT22;17097;50.916;5.344;2023-05-16T00:39:57;11.30;99.90
30280;DHT22;17097;50.916;5.344;2023-05-16T00:42:23;11.20;99.90
30280;DHT22;17097;50.916;5.344;2023-05-16T00:44:49;11.40;99.90
30280;DHT22;17097;50.916;5.344;2023-05-16T00:47:15;11.30;99.90
30280;DHT22;17097;50.916;5.344;2023-05-16T00:49:41;11.30;99.90
30280;DHT22;17097;50.916;5.344;2023-05-16T00:52:07;11.30;99.90
30280;DHT22;17097;50.916;5.344;2023-05-16T00:54:33;11.40;99.90
30280;DHT22;17097;50.916;5.344;2023-05-16T00:56:59;11.30;99.90
30280;DHT22;17097;50.916;5.344;2023-05-16T00:59:26;11.40;99.90
30280;DHT22;17097;50.916;5.344;2023-05-16T01:01:52;11.30;99.90
30280;DHT22;17097;50.916;5.344;2023-05-16T01:04:18;11.40;99.90
30280;DHT22;17097;50.916;5.344;2023-05-16T01:06:45;11.30;99.90
30280;DHT22;17097;50.916;5.344;2023-05-16T01:09:12;11.30;99.90
30280;DHT22;17097;50.916;5.344;2023-05-16T01:11:52;11.40;99.90
30280;DHT22;17097;50.916;5.344;2023-05-16T01:14:36;11.30;99.90
30280;DHT22;17097;50.916;5.344;2023-05-16T01:27:54;11.20;99.90
30280;DHT22;17097;50.916;5.344;2023-05-16T01:30:21;11.30;99.90
30280;DHT22;17097;50.916;5.344;2023-05-16T01:32:47;11.10;99.90
30280;DHT22;17097;50.916;5.344;2023-05-16T01:35:15;11.10;99.90
30280;DHT22;17097;50.916;5.344;2023-05-16T01:37:44;11.10;99.90
30280;DHT22;17097;50.916;5.344;2023-05-16T01:40:16;11.00;99.90
30280;DHT22;17097;50.916;5.344;2023-05-16T01:42:45;11.00;99.90
30280;DHT22;17097;50.916;5.344;2023-05-16T01:45:17;10.90;99.90
30280;DHT22;17097;50.916;5.344;2023-05-16T01:47:47;10.90;99.90
30280;DHT22;17097;50.916;5.344;2023-05-16T01:50:16;10.90;99.90
30280;DHT22;17097;50.916;5.344;2023-05-16T01:53:27;11.00;99.90
30280;DHT22;17097;50.916;5.344;2023-05-16T01:55:56;11.20;99.90
30280;DHT22;17097;50.916;5.344;2023-05-16T01:58:25;11.10;99.90
30280;DHT22;17097;50.916;5.344;2023-05-16T02:01:00;10.90;99.90
30280;DHT22;17097;50.916;5.344;2023-05-16T02:03:28;11.00;99.90
30280;DHT22;17097;50.916;5.344;2023-05-16T02:05:54;10.90;99.90
30280;DHT22;17097;50.916;5.344;2023-05-16T02:08:20;10.80;99.90
30280;DHT22;17097;50.916;5.344;2023-05-16T02:10:46;10.70;99.90
30280;DHT22;17097;50.916;5.344;2023-05-16T02:13:12;10.90;99.90
30280;DHT22;17097;50.916;5.344;2023-05-16T02:15:40;10.80;99.90
30280;DHT22;17097;50.916;5.344;2023-05-16T02:18:06;10.80;99.90
30280;DHT22;17097;50.916;5.344;2023-05-16T02:20:35;10.90;99.90
30280;DHT22;17097;50.916;5.344;2023-05-16T02:23:01;10.80;99.90
30280;DHT22;17097;50.916;5.344;2023-05-16T02:25:28;10.90;99.90
30280;DHT22;17097;50.916;5.344;2023-05-16T02:27:54;10.70;99.90
30280;DHT22;17097;50.916;5.344;2023-05-16T02:30:20;10.70;99.90
30280;DHT22;17097;50.916;5.344;2023-05-16T02:32:46;10.70;99.90
30280;DHT22;17097;50.916;5.344;2023-05-16T02:35:15;10.70;99.90
30280;DHT22;17097;50.916;5.344;2023-05-16T02:37:41;10.70;99.90
30280;DHT22;17097;50.916;5.344;2023-05-16T02:40:10;10.70;99.90
30280;DHT22;17097;50.916;5.344;2023-05-16T02:42:35;10.60;99.90
30280;DHT22;17097;50.916;5.344;2023-05-16T02:45:01;10.70;99.90
30280;DHT22;17097;50.916;5.344;2023-05-16T02:47:27;10.60;99.90
30280;DHT22;17097;50.916;5.344;2023-05-16T02:49:53;10.60;99.90
30280;DHT22;17097;50.916;5.344;2023-05-16T02:52:19;10.60;99.90
30280;DHT22;17097;50.916;5.344;2023-05-16T02:54:46;10.50;99.90
30280;DHT22;17097;50.916;5.344;2023-05-16T02:57:14;10.60;99.90
30280;DHT22;17097;50.916;5.344;2023-05-16T02:59:40;10.50;99.90
30280;DHT22;17097;50.916;5.344;2023-05-16T03:02:06;10.40;99.90
30280;DHT22;17097;50.916;5.344;2023-05-16T03:04:32;10.40;99.90
30280;DHT22;17097;50.916;5.344;2023-05-16T03:06:59;10.30;99.90
30280;DHT22;17097;50.916;5.344;2023-05-16T03:09:25;10.30;99.90
30280;DHT22;17097;50.916;5.344;2023-05-16T03:11:51;10.20;99.90
30280;DHT22;17097;50.916;5.344;2023-05-16T03:14:17;10.20;99.90
30280;DHT22;17097;50.916;5.344;2023-05-16T03:16:44;10.20;99.90
30280;DHT22;17097;50.916;5.344;2023-05-16T03:19:10;10.10;99.90
30280;DHT22;17097;50.916;5.344;2023-05-16T03:21:38;10.00;99.90
30280;DHT22;17097;50.916;5.344;2023-05-16T03:24:04;10.10;99.90
30280;DHT22;17097;50.916;5.344;2023-05-16T03:26:32;10.20;99.90
30280;DHT22;17097;50.916;5.344;2023-05-16T03:28:58;10.10;99.90
30280;DHT22;17097;50.916;5.344;2023-05-16T03:31:24;10.10;99.90
30280;DHT22;17097;50.916;5.344;2023-05-16T03:33:50;10.20;99.90
30280;DHT22;17097;50.916;5.344;2023-05-16T03:36:20;10.10;99.90
30280;DHT22;17097;50.916;5.344;2023-05-16T03:38:46;10.10;99.90
30280;DHT22;17097;50.916;5.344;2023-05-16T03:41:12;10.10;99.90
30280;DHT22;17097;50.916;5.344;2023-05-16T03:43:38;10.10;99.90
30280;DHT22;17097;50.916;5.344;2023-05-16T03:46:04;10.10;99.90
30280;DHT22;17097;50.916;5.344;2023-05-16T03:48:30;10.10;99.90
30280;DHT22;17097;50.916;5.344;2023-05-16T03:50:56;9.90;99.90
30280;DHT22;17097;50.916;5.344;2023-05-16T03:53:24;9.80;99.90
30280;DHT22;17097;50.916;5.344;2023-05-16T03:55:53;9.80;99.90
30280;DHT22;17097;50.916;5.344;2023-05-16T03:58:18;9.80;99.90
30280;DHT22;17097;50.916;5.344;2023-05-16T04:00:44;9.70;99.90
30280;DHT22;17097;50.916;5.344;2023-05-16T04:03:13;9.80;99.90
30280;DHT22;17097;50.916;5.344;2023-05-16T04:05:39;9.90;99.90
30280;DHT22;17097;50.916;5.344;2023-05-16T04:08:05;10.00;99.90
30280;DHT22;17097;50.916;5.344;2023-05-16T04:10:31;10.10;99.90
30280;DHT22;17097;50.916;5.344;2023-05-16T04:13:01;10.10;99.90
30280;DHT22;17097;50.916;5.344;2023-05-16T04:15:27;10.00;99.90
30280;DHT22;17097;50.916;5.344;2023-05-16T04:17:53;10.00;99.90
30280;DHT22;17097;50.916;5.344;2023-05-16T04:20:19;9.80;99.90
30280;DHT22;17097;50.916;5.344;2023-05-16T04:22:46;9.70;99.90
30280;DHT22;17097;50.916;5.344;2023-05-16T04:25:12;9.90;99.90
30280;DHT22;17097;50.916;5.344;2023-05-16T04:27:38;9.90;99.90
30280;DHT22;17097;50.916;5.344;2023-05-16T04:30:04;9.90;99.90
30280;DHT22;17097;50.916;5.344;2023-05-16T04:32:33;9.90;99.90
30280;DHT22;17097;50.916;5.344;2023-05-16T04:35:02;10.00;99.90
30280;DHT22;17097;50.916;5.344;2023-05-16T04:37:27;10.00;99.90
30280;DHT22;17097;50.916;5.344;2023-05-16T04:39:53;9.80;99.90
30280;DHT22;17097;50.916;5.344;2023-05-16T04:42:19;9.90;99.90
30280;DHT22;17097;50.916;5.344;2023-05-16T04:44:45;10.20;99.90
30280;DHT22;17097;50.916;5.344;2023-05-16T04:47:12;10.00;99.90
30280;DHT22;17097;50.916;5.344;2023-05-16T04:49:38;10.00;99.90
30280;DHT22;17097;50.916;5.344;2023-05-16T04:52:05;10.00;99.90
30280;DHT22;17097;50.916;5.344;2023-05-16T04:54:36;9.90;99.90
30280;DHT22;17097;50.916;5.344;2023-05-16T04:57:02;9.90;99.90
30280;DHT22;17097;50.916;5.344;2023-05-16T04:59:28;9.80;99.90
30280;DHT22;17097;50.916;5.344;2023-05-16T05:01:53;9.90;99.90
30280;DHT22;17097;50.916;5.344;2023-05-16T05:04:19;10.00;99.90
30280;DHT22;17097;50.916;5.344;2023-05-16T05:06:45;10.00;99.90
30280;DHT22;17097;50.916;5.344;2023-05-16T05:09:13;10.40;99.90
30280;DHT22;17097;50.916;5.344;2023-05-16T05:11:39;10.60;99.90
30280;DHT22;17097;50.916;5.344;2023-05-16T05:14:05;10.40;99.90
30280;DHT22;17097;50.916;5.344;2023-05-16T05:16:31;10.30;99.90
30280;DHT22;17097;50.916;5.344;2023-05-16T05:18:57;10.30;99.90
30280;DHT22;17097;50.916;5.344;2023-05-16T05:21:23;10.30;99.90
30280;DHT22;17097;50.916;5.344;2023-05-16T05:23:50;10.30;99.90
30280;DHT22;17097;50.916;5.344;2023-05-16T05:26:16;10.20;99.90
30280;DHT22;17097;50.916;5.344;2023-05-16T05:28:48;10.30;99.90
30280;DHT22;17097;50.916;5.344;2023-05-16T05:31:17;10.50;99.90
30280;DHT22;17097;50.916;5.344;2023-05-16T05:33:43;10.50;99.90
30280;DHT22;17097;50.916;5.344;2023-05-16T05:36:08;10.50;99.90
30280;DHT22;17097;50.916;5.344;2023-05-16T05:38:34;10.60;99.90
30280;DHT22;17097;50.916;5.344;2023-05-16T05:41:00;10.90;99.90
30280;DHT22;17097;50.916;5.344;2023-05-16T05:43:26;11.00;99.90
30280;DHT22;17097;50.916;5.344;2023-05-16T05:45:53;11.20;99.90
30280;DHT22;17097;50.916;5.344;2023-05-16T05:48:18;11.60;99.90
30280;DHT22;17097;50.916;5.344;2023-05-16T05:50:47;11.60;99.90
30280;DHT22;17097;50.916;5.344;2023-05-16T05:53:12;11.70;99.90
30280;DHT22;17097;50.916;5.344;2023-05-16T05:55:40;11.70;99.90
30280;DHT22;17097;50.916;5.344;2023-05-16T05:58:08;11.80;99.90
30280;DHT22;17097;50.916;5.344;2023-05-16T06:00:34;11.90;99.90
30280;DHT22;17097;50.916;5.344;2023-05-16T06:03:00;12.00;99.90
30280;DHT22;17097;50.916;5.344;2023-05-16T06:05:26;12.10;99.90
30280;DHT22;17097;50.916;5.344;2023-05-16T06:07:52;12.10;99.90
30280;DHT22;17097;50.916;5.344;2023-05-16T06:10:18;11.80;99.90
30280;DHT22;17097;50.916;5.344;2023-05-16T06:12:47;12.00;99.90
30280;DHT22;17097;50.916;5.344;2023-05-16T06:15:13;12.10;99.90
30280;DHT22;17097;50.916;5.344;2023-05-16T06:17:39;12.30;99.90
30280;DHT22;17097;50.916;5.344;2023-05-16T06:20:08;12.30;99.90
30280;DHT22;17097;50.916;5.344;2023-05-16T06:22:34;12.50;99.90
30280;DHT22;17097;50.916;5.344;2023-05-16T06:24:59;12.60;99.90
30280;DHT22;17097;50.916;5.344;2023-05-16T06:27:25;12.60;99.90
30280;DHT22;17097;50.916;5.344;2023-05-16T06:29:53;12.60;99.90
30280;DHT22;17097;50.916;5.344;2023-05-16T06:32:19;12.40;99.90
30280;DHT22;17097;50.916;5.344;2023-05-16T06:34:45;12.10;99.90
30280;DHT22;17097;50.916;5.344;2023-05-16T06:37:11;12.20;99.90
30280;DHT22;17097;50.916;5.344;2023-05-16T06:39:37;12.40;99.90
30280;DHT22;17097;50.916;5.344;2023-05-16T06:42:04;12.60;99.90
30280;DHT22;17097;50.916;5.344;2023-05-16T06:44:31;12.60;99.90
30280;DHT22;17097;50.916;5.344;2023-05-16T06:46:57;12.70;99.90
30280;DHT22;17097;50.916;5.344;2023-05-16T06:49:23;12.50;99.90
30280;DHT22;17097;50.916;5.344;2023-05-16T06:51:48;12.60;99.90
30280;DHT22;17097;50.916;5.344;2023-05-16T06:54:17;12.60;99.90
30280;DHT22;17097;50.916;5.344;2023-05-16T06:56:44;12.70;99.90
30280;DHT22;17097;50.916;5.344;2023-05-16T06:59:12;12.90;99.90
30280;DHT22;17097;50.916;5.344;2023-05-16T07:01:38;13.00;99.90
30280;DHT22;17097;50.916;5.344;2023-05-16T07:04:06;13.00;99.90
30280;DHT22;17097;50.916;5.344;2023-05-16T07:06:32;13.10;99.90
30280;DHT22;17097;50.916;5.344;2023-05-16T07:08:58;12.90;99.90
30280;DHT22;17097;50.916;5.344;2023-05-16T07:11:24;12.90;99.90
30280;DHT22;17097;50.916;5.344;2023-05-16T07:13:50;12.90;99.90
30280;DHT22;17097;50.916;5.344;2023-05-16T07:16:16;13.00;99.90
30280;DHT22;17097;50.916;5.344;2023-05-16T07:18:41;13.10;99.90
30280;DHT22;17097;50.916;5.344;2023-05-16T07:21:07;13.00;99.90
30280;DHT22;17097;50.916;5.344;2023-05-16T07:23:34;13.20;99.90
30280;DHT22;17097;50.916;5.344;2023-05-16T07:26:02;13.30;99.90
30280;DHT22;17097;50.916;5.344;2023-05-16T07:28:29;13.40;99.90
30280;DHT22;17097;50.916;5.344;2023-05-16T07:30:55;13.70;99.90
30280;DHT22;17097;50.916;5.344;2023-05-16T07:33:23;13.70;99.90
30280;DHT22;17097;50.916;5.344;2023-05-16T07:35:49;13.80;99.90
30280;DHT22;17097;50.916;5.344;2023-05-16T07:38:19;13.90;99.90
30280;DHT22;17097;50.916;5.344;2023-05-16T07:40:48;13.90;99.90
30280;DHT22;17097;50.916;5.344;2023-05-16T07:43:13;13.90;99.90
30280;DHT22;17097;50.916;5.344;2023-05-16T07:45:40;13.80;99.90
30280;DHT22;17097;50.916;5.344;2023-05-16T07:48:06;13.80;99.90
30280;DHT22;17097;50.916;5.344;2023-05-16T07:50:32;13.90;99.90
30280;DHT22;17097;50.916;5.344;2023-05-16T07:53:00;13.70;99.90
30280;DHT22;17097;50.916;5.344;2023-05-16T07:55:26;13.90;99.90
30280;DHT22;17097;50.916;5.344;2023-05-16T07:57:53;14.00;99.90
30280;DHT22;17097;50.916;5.344;2023-05-16T08:00:19;13.70;99.90
30280;DHT22;17097;50.916;5.344;2023-05-16T08:02:45;13.90;99.90
30280;DHT22;17097;50.916;5.344;2023-05-16T08:05:14;14.00;99.90
30280;DHT22;17097;50.916;5.344;2023-05-16T08:07:40;14.30;99.90
30280;DHT22;17097;50.916;5.344;2023-05-16T08:10:07;14.40;99.90
30280;DHT22;17097;50.916;5.344;2023-05-16T08:12:35;14.40;99.90
30280;DHT22;17097;50.916;5.344;2023-05-16T08:15:02;14.40;99.90
30280;DHT22;17097;50.916;5.344;2023-05-16T08:17:31;13.90;99.90
30280;DHT22;17097;50.916;5.344;2023-05-16T08:19:57;13.90;99.90
30280;DHT22;17097;50.916;5.344;2023-05-16T08:22:26;13.80;99.90
30280;DHT22;17097;50.916;5.344;2023-05-16T08:24:51;14.00;99.90
30280;DHT22;17097;50.916;5.344;2023-05-16T08:27:17;14.20;99.90
30280;DHT22;17097;50.916;5.344;2023-05-16T08:29:43;14.60;99.90
30280;DHT22;17097;50.916;5.344;2023-05-16T08:32:10;14.70;99.90
30280;DHT22;17097;50.916;5.344;2023-05-16T08:34:36;14.90;99.90
30280;DHT22;17097;50.916;5.344;2023-05-16T08:37:02;14.40;99.90
30280;DHT22;17097;50.916;5.344;2023-05-16T08:39:28;14.30;99.90
30280;DHT22;17097;50.916;5.344;2023-05-16T08:41:57;14.10;99.90
30280;DHT22;17097;50.916;5.344;2023-05-16T08:44:23;14.30;99.90
30280;DHT22;17097;50.916;5.344;2023-05-16T08:46:50;14.80;99.90
30280;DHT22;17097;50.916;5.344;2023-05-16T08:49:20;15.50;99.90
30280;DHT22;17097;50.916;5.344;2023-05-16T08:51:47;16.50;99.90
30280;DHT22;17097;50.916;5.344;2023-05-16T08:54:15;17.20;99.90
30280;DHT22;17097;50.916;5.344;2023-05-16T08:56:45;16.60;99.90
30280;DHT22;17097;50.916;5.344;2023-05-16T08:59:12;16.70;99.90
30280;DHT22;17097;50.916;5.344;2023-05-16T09:01:41;17.10;99.90
30280;DHT22;17097;50.916;5.344;2023-05-16T09:04:08;17.70;99.90
30280;DHT22;17097;50.916;5.344;2023-05-16T09:06:37;18.50;98.30
30280;DHT22;17097;50.916;5.344;2023-05-16T09:09:04;18.50;97.10
30280;DHT22;17097;50.916;5.344;2023-05-16T09:11:32;18.80;97.00
30280;DHT22;17097;50.916;5.344;2023-05-16T09:13:58;19.20;93.90
30280;DHT22;17097;50.916;5.344;2023-05-16T09:16:25;19.40;93.00
30280;DHT22;17097;50.916;5.344;2023-05-16T09:18:58;19.20;92.70
30280;DHT22;17097;50.916;5.344;2023-05-16T09:21:28;19.30;95.40
30280;DHT22;17097;50.916;5.344;2023-05-16T09:23:54;19.10;93.70
30280;DHT22;17097;50.916;5.344;2023-05-16T09:26:21;19.60;94.30
30280;DHT22;17097;50.916;5.344;2023-05-16T09:28:47;20.00;91.80
30280;DHT22;17097;50.916;5.344;2023-05-16T09:31:24;20.10;91.00
30280;DHT22;17097;50.916;5.344;2023-05-16T09:34:01;19.90;90.60
30280;DHT22;17097;50.916;5.344;2023-05-16T09:36:31;19.30;91.80
30280;DHT22;17097;50.916;5.344;2023-05-16T09:39:00;18.80;92.40
30280;DHT22;17097;50.916;5.344;2023-05-16T09:41:32;18.60;93.40
30280;DHT22;17097;50.916;5.344;2023-05-16T09:44:03;18.30;92.10
30280;DHT22;17097;50.916;5.344;2023-05-16T09:46:32;17.70;93.10
30280;DHT22;17097;50.916;5.344;2023-05-16T09:48:58;17.40;93.80
30280;DHT22;17097;50.916;5.344;2023-05-16T09:51:25;17.50;95.10
30280;DHT22;17097;50.916;5.344;2023-05-16T09:53:52;18.00;93.80
30280;DHT22;17097;50.916;5.344;2023-05-16T09:56:19;18.40;93.90
30280;DHT22;17097;50.916;5.344;2023-05-16T09:58:51;19.40;95.00
30280;DHT22;17097;50.916;5.344;2023-05-16T10:01:17;19.60;92.20
30280;DHT22;17097;50.916;5.344;2023-05-16T10:03:43;19.40;89.10
30280;DHT22;17097;50.916;5.344;2023-05-16T10:06:09;19.20;93.00
30280;DHT22;17097;50.916;5.344;2023-05-16T10:08:40;19.40;91.60
30280;DHT22;17097;50.916;5.344;2023-05-16T10:11:09;19.90;91.80
30280;DHT22;17097;50.916;5.344;2023-05-16T10:13:35;20.40;87.40
30280;DHT22;17097;50.916;5.344;2023-05-16T10:16:07;20.20;90.70
30280;DHT22;17097;50.916;5.344;2023-05-16T10:18:37;19.90;90.60
30280;DHT22;17097;50.916;5.344;2023-05-16T10:21:13;19.90;88.50
30280;DHT22;17097;50.916;5.344;2023-05-16T10:23:43;19.90;90.90
30280;DHT22;17097;50.916;5.344;2023-05-16T10:26:13;19.50;89.30
30280;DHT22;17097;50.916;5.344;2023-05-16T10:28:44;19.50;90.50
30280;DHT22;17097;50.916;5.344;2023-05-16T10:31:10;19.20;91.60
30280;DHT22;17097;50.916;5.344;2023-05-16T10:33:36;18.60;92.10
30280;DHT22;17097;50.916;5.344;2023-05-16T10:36:06;18.40;93.10
30280;DHT22;17097;50.916;5.344;2023-05-16T10:38:33;17.90;93.80
30280;DHT22;17097;50.916;5.344;2023-05-16T10:40:59;17.80;94.10
30280;DHT22;17097;50.916;5.344;2023-05-16T10:43:29;17.70;96.10
30280;DHT22;17097;50.916;5.344;2023-05-16T10:46:15;18.10;96.30
30280;DHT22;17097;50.916;5.344;2023-05-16T10:48:41;18.60;95.70
30280;DHT22;17097;50.916;5.344;2023-05-16T10:51:36;19.30;97.00
30280;DHT22;17097;50.916;5.344;2023-05-16T10:54:10;19.90;94.90
30280;DHT22;17097;50.916;5.344;2023-05-16T10:56:38;19.90;93.80
30280;DHT22;17097;50.916;5.344;2023-05-16T10:59:04;20.30;91.80
30280;DHT22;17097;50.916;5.344;2023-05-16T11:01:52;20.00;90.60
30280;DHT22;17097;50.916;5.344;2023-05-16T11:04:18;19.50;93.40
30280;DHT22;17097;50.916;5.344;2023-05-16T11:06:46;19.40;91.80
30280;DHT22;17097;50.916;5.344;2023-05-16T11:09:17;19.10;91.90
30280;DHT22;17097;50.916;5.344;2023-05-16T11:11:45;18.70;92.70
30280;DHT22;17097;50.916;5.344;2023-05-16T11:14:23;18.00;93.60
30280;DHT22;17097;50.916;5.344;2023-05-16T11:16:51;17.70;94.10
30280;DHT22;17097;50.916;5.344;2023-05-16T11:22:06;16.90;94.30
30280;DHT22;17097;50.916;5.344;2023-05-16T11:24:32;16.50;94.50
30280;DHT22;17097;50.916;5.344;2023-05-16T11:27:00;16.50;96.50
30280;DHT22;17097;50.916;5.344;2023-05-16T11:29:33;17.10;96.60
30280;DHT22;17097;50.916;5.344;2023-05-16T11:32:01;17.70;94.60
30280;DHT22;17097;50.916;5.344;2023-05-16T11:34:29;18.10;92.70
30280;DHT22;17097;50.916;5.344;2023-05-16T11:36:55;18.40;93.40
30280;DHT22;17097;50.916;5.344;2023-05-16T11:39:24;18.40;93.70
30280;DHT22;17097;50.916;5.344;2023-05-16T11:41:50;19.00;93.10
30280;DHT22;17097;50.916;5.344;2023-05-16T11:44:20;19.20;93.40
30280;DHT22;17097;50.916;5.344;2023-05-16T11:46:46;19.40;90.80
30280;DHT22;17097;50.916;5.344;2023-05-16T11:49:12;19.40;88.60
30280;DHT22;17097;50.916;5.344;2023-05-16T11:51:39;19.50;90.40
30280;DHT22;17097;50.916;5.344;2023-05-16T11:54:06;19.20;91.20
30280;DHT22;17097;50.916;5.344;2023-05-16T11:56:34;18.90;89.30
30280;DHT22;17097;50.916;5.344;2023-05-16T11:59:01;18.80;90.30
30280;DHT22;17097;50.916;5.344;2023-05-16T12:01:38;18.70;91.70
30280;DHT22;17097;50.916;5.344;2023-05-16T12:04:08;19.00;90.40
30280;DHT22;17097;50.916;5.344;2023-05-16T12:06:34;19.20;89.00
30280;DHT22;17097;50.916;5.344;2023-05-16T12:09:03;19.20;88.10
30280;DHT22;17097;50.916;5.344;2023-05-16T12:11:38;19.10;88.50
30280;DHT22;17097;50.916;5.344;2023-05-16T12:14:08;18.70;86.70
30280;DHT22;17097;50.916;5.344;2023-05-16T12:16:38;18.50;91.10
30280;DHT22;17097;50.916;5.344;2023-05-16T12:19:07;18.80;91.20
30280;DHT22;17097;50.916;5.344;2023-05-16T12:21:34;19.00;90.20
30280;DHT22;17097;50.916;5.344;2023-05-16T12:24:00;19.10;84.40
30280;DHT22;17097;50.916;5.344;2023-05-16T12:26:31;19.20;86.20
30280;DHT22;17097;50.916;5.344;2023-05-16T12:29:01;19.10;87.40
30280;DHT22;17097;50.916;5.344;2023-05-16T12:31:34;19.10;84.20
30280;DHT22;17097;50.916;5.344;2023-05-16T12:34:01;19.30;90.90
30280;DHT22;17097;50.916;5.344;2023-05-16T12:36:33;19.00;88.40
30280;DHT22;17097;50.916;5.344;2023-05-16T12:39:02;18.60;90.90
30280;DHT22;17097;50.916;5.344;2023-05-16T12:41:29;18.60;90.60
30280;DHT22;17097;50.916;5.344;2023-05-16T12:44:14;18.80;91.70
30280;DHT22;17097;50.916;5.344;2023-05-16T12:46:51;19.30;87.80
30280;DHT22;17097;50.916;5.344;2023-05-16T12:49:20;19.30;88.10
30280;DHT22;17097;50.916;5.344;2023-05-16T12:51:51;19.30;85.30
30280;DHT22;17097;50.916;5.344;2023-05-16T12:54:20;19.00;79.50
30280;DHT22;17097;50.916;5.344;2023-05-16T12:56:47;18.70;82.10
30280;DHT22;17097;50.916;5.344;2023-05-16T12:59:14;18.30;84.90
30280;DHT22;17097;50.916;5.344;2023-05-16T13:01:40;18.10;90.30
30280;DHT22;17097;50.916;5.344;2023-05-16T13:04:09;18.10;92.10
30280;DHT22;17097;50.916;5.344;2023-05-16T13:06:40;18.40;93.40
30280;DHT22;17097;50.916;5.344;2023-05-16T13:09:07;18.80;88.50
30280;DHT22;17097;50.916;5.344;2023-05-16T13:11:33;18.90;89.60
30280;DHT22;17097;50.916;5.344;2023-05-16T13:14:01;18.70;90.00
30280;DHT22;17097;50.916;5.344;2023-05-16T13:16:28;18.70;88.30
30280;DHT22;17097;50.916;5.344;2023-05-16T13:18:54;18.70;89.10
30280;DHT22;17097;50.916;5.344;2023-05-16T13:21:21;18.40;91.60
30280;DHT22;17097;50.916;5.344;2023-05-16T13:23:47;18.40;92.00
30280;DHT22;17097;50.916;5.344;2023-05-16T13:26:16;18.40;92.70
30280;DHT22;17097;50.916;5.344;2023-05-16T13:28:42;18.60;93.60
30280;DHT22;17097;50.916;5.344;2023-05-16T13:31:09;18.90;91.80
30280;DHT22;17097;50.916;5.344;2023-05-16T13:33:34;18.90;90.70
30280;DHT22;17097;50.916;5.344;2023-05-16T13:36:02;18.60;91.20
30280;DHT22;17097;50.916;5.344;2023-05-16T13:38:30;18.70;90.90
30280;DHT22;17097;50.916;5.344;2023-05-16T13:40:57;18.90;90.90
30280;DHT22;17097;50.916;5.344;2023-05-16T13:43:26;18.80;91.40
30280;DHT22;17097;50.916;5.344;2023-05-16T13:45:52;18.70;90.60
30280;DHT22;17097;50.916;5.344;2023-05-16T13:48:17;18.60;90.10
30280;DHT22;17097;50.916;5.344;2023-05-16T13:50:44;18.50;90.40
30280;DHT22;17097;50.916;5.344;2023-05-16T13:53:11;18.30;92.20
30280;DHT22;17097;50.916;5.344;2023-05-16T13:55:37;18.20;91.00
30280;DHT22;17097;50.916;5.344;2023-05-16T13:58:06;18.10;90.90
30280;DHT22;17097;50.916;5.344;2023-05-16T14:00:31;17.90;91.10
30280;DHT22;17097;50.916;5.344;2023-05-16T14:02:57;18.10;90.50
30280;DHT22;17097;50.916;5.344;2023-05-16T14:05:25;18.10;90.80
30280;DHT22;17097;50.916;5.344;2023-05-16T14:07:54;17.80;91.10
30280;DHT22;17097;50.916;5.344;2023-05-16T14:10:20;17.40;93.20
30280;DHT22;17097;50.916;5.344;2023-05-16T14:12:46;17.20;93.70
30280;DHT22;17097;50.916;5.344;2023-05-16T14:15:13;17.10;93.40
30280;DHT22;17097;50.916;5.344;2023-05-16T14:17:39;17.10;93.70
30280;DHT22;17097;50.916;5.344;2023-05-16T14:20:08;16.90;93.80
30280;DHT22;17097;50.916;5.344;2023-05-16T14:22:35;16.80;94.60
30280;DHT22;17097;50.916;5.344;2023-05-16T14:25:02;16.90;95.40
30280;DHT22;17097;50.916;5.344;2023-05-16T14:27:28;16.90;95.10
30280;DHT22;17097;50.916;5.344;2023-05-16T14:29:54;17.20;96.20
30280;DHT22;17097;50.916;5.344;2023-05-16T14:32:20;17.30;93.30
30280;DHT22;17097;50.916;5.344;2023-05-16T14:34:46;17.30;93.60
30280;DHT22;17097;50.916;5.344;2023-05-16T14:37:12;17.40;93.00
30280;DHT22;17097;50.916;5.344;2023-05-16T14:39:38;17.20;93.70
30280;DHT22;17097;50.916;5.344;2023-05-16T14:42:04;17.30;95.00
30280;DHT22;17097;50.916;5.344;2023-05-16T14:44:30;17.60;95.20
30280;DHT22;17097;50.916;5.344;2023-05-16T14:46:59;17.80;94.00
30280;DHT22;17097;50.916;5.344;2023-05-16T14:49:25;17.90;93.90
30280;DHT22;17097;50.916;5.344;2023-05-16T14:51:50;18.10;92.10
30280;DHT22;17097;50.916;5.344;2023-05-16T14:54:16;18.20;91.60
30280;DHT22;17097;50.916;5.344;2023-05-16T14:56:46;18.20;92.50
30280;DHT22;17097;50.916;5.344;2023-05-16T14:59:14;18.40;91.60
30280;DHT22;17097;50.916;5.344;2023-05-16T15:01:40;18.50;91.90
30280;DHT22;17097;50.916;5.344;2023-05-16T15:04:08;18.10;90.90
30280;DHT22;17097;50.916;5.344;2023-05-16T15:06:34;18.20;91.80
30280;DHT22;17097;50.916;5.344;2023-05-16T15:09:00;17.90;92.60
30280;DHT22;17097;50.916;5.344;2023-05-16T15:11:29;18.10;91.70
30280;DHT22;17097;50.916;5.344;2023-05-16T15:13:56;18.00;92.40
30280;DHT22;17097;50.916;5.344;2023-05-16T15:16:22;18.00;93.10
30280;DHT22;17097;50.916;5.344;2023-05-16T15:18:47;18.00;91.50
30280;DHT22;17097;50.916;5.344;2023-05-16T15:21:13;17.90;93.10
30280;DHT22;17097;50.916;5.344;2023-05-16T15:23:38;17.80;92.50
30280;DHT22;17097;50.916;5.344;2023-05-16T15:26:04;17.40;92.80
30280;DHT22;17097;50.916;5.344;2023-05-16T15:28:30;17.50;92.00
30280;DHT22;17097;50.916;5.344;2023-05-16T15:30:56;17.30;91.40
30280;DHT22;17097;50.916;5.344;2023-05-16T15:33:22;17.20;92.20
30280;DHT22;17097;50.916;5.344;2023-05-16T15:35:50;17.10;92.90
30280;DHT22;17097;50.916;5.344;2023-05-16T15:38:16;17.10;93.60
30280;DHT22;17097;50.916;5.344;2023-05-16T15:40:41;17.00;92.90
30280;DHT22;17097;50.916;5.344;2023-05-16T15:43:10;17.00;93.20
30280;DHT22;17097;50.916;5.344;2023-05-16T15:45:35;17.00;94.40
30280;DHT22;17097;50.916;5.344;2023-05-16T15:48:01;17.00;94.10